Terminal Aerodrome Forecast
Issued by NWS Caribou, ME

Home | Current Version | Previous Version | Text Only | Print | Product List | Glossary On
Versions: 1 2 3 4 5 6 7 8 9 10 11 12 13 14 15 16
332
FTUS41 KCAR 190520
TAFCAR
TAF
KCAR 190520Z 1906/2006 15007KT 3SM -SN BR OVC020
      TEMPO 1906/1907 1SM -SN OVC008
     FM190730 17007KT 3/4SM -SN BR OVC008
     FM191300 19006KT 2SM -SN OVC009
     FM191500 21005KT 5SM -SHSN OVC012
     FM192000 VRB03KT P6SM BKN020=

USA.gov is the U.S. government's official web portal to all federal, state and local government web resources and services.